sensor_id;sensor_type;location;lat;lon;timestamp;temperature;humidity
33931;DHT22;20215;53.130;6.408;2022-09-23T00:01:27;20.20;67.00
33931;DHT22;20215;53.130;6.408;2022-09-23T00:03:59;20.20;66.80
33931;DHT22;20215;53.130;6.408;2022-09-23T00:06:28;20.20;66.80
33931;DHT22;20215;53.130;6.408;2022-09-23T00:11:53;20.20;66.90
33931;DHT22;20215;53.130;6.408;2022-09-23T00:14:22;20.20;66.60
33931;DHT22;20215;53.130;6.408;2022-09-23T00:17:01;20.20;66.90
33931;DHT22;20215;53.130;6.408;2022-09-23T00:19:27;20.20;66.80
33931;DHT22;20215;53.130;6.408;2022-09-23T00:21:59;20.10;66.90
33931;DHT22;20215;53.130;6.408;2022-09-23T00:24:25;20.20;66.80
33931;DHT22;20215;53.130;6.408;2022-09-23T00:26:50;20.10;66.80
33931;DHT22;20215;53.130;6.408;2022-09-23T00:29:25;20.20;66.80
33931;DHT22;20215;53.130;6.408;2022-09-23T00:32:01;20.10;66.70
33931;DHT22;20215;53.130;6.408;2022-09-23T00:34:51;20.10;66.80
33931;DHT22;20215;53.130;6.408;2022-09-23T00:37:32;20.10;66.50
33931;DHT22;20215;53.130;6.408;2022-09-23T00:40:10;20.10;66.60
33931;DHT22;20215;53.130;6.408;2022-09-23T00:42:49;20.10;66.80
33931;DHT22;20215;53.130;6.408;2022-09-23T00:45:33;20.10;66.60
33931;DHT22;20215;53.130;6.408;2022-09-23T00:48:01;20.00;66.60
33931;DHT22;20215;53.130;6.408;2022-09-23T00:50:37;20.00;66.60
33931;DHT22;20215;53.130;6.408;2022-09-23T00:53:24;20.00;66.70
33931;DHT22;20215;53.130;6.408;2022-09-23T00:58:45;20.00;66.70
33931;DHT22;20215;53.130;6.408;2022-09-23T01:03:44;20.00;66.90
33931;DHT22;20215;53.130;6.408;2022-09-23T01:06:13;20.00;66.70
33931;DHT22;20215;53.130;6.408;2022-09-23T01:08:39;20.00;66.80
33931;DHT22;20215;53.130;6.408;2022-09-23T01:31:22;19.80;66.80
33931;DHT22;20215;53.130;6.408;2022-09-23T01:34:22;19.80;66.80
33931;DHT22;20215;53.130;6.408;2022-09-23T01:37:47;19.80;66.80
33931;DHT22;20215;53.130;6.408;2022-09-23T01:40:46;19.80;66.80
33931;DHT22;20215;53.130;6.408;2022-09-23T01:43:39;19.80;66.60
33931;DHT22;20215;53.130;6.408;2022-09-23T01:46:52;19.80;66.80
33931;DHT22;20215;53.130;6.408;2022-09-23T01:55:35;19.80;67.30
33931;DHT22;20215;53.130;6.408;2022-09-23T01:58:07;19.80;66.90
33931;DHT22;20215;53.130;6.408;2022-09-23T02:01:20;19.80;67.20
33931;DHT22;20215;53.130;6.408;2022-09-23T02:03:58;19.80;66.80
33931;DHT22;20215;53.130;6.408;2022-09-23T02:06:32;19.70;66.80
33931;DHT22;20215;53.130;6.408;2022-09-23T02:09:03;19.70;67.10
33931;DHT22;20215;53.130;6.408;2022-09-23T02:11:46;19.70;67.10
33931;DHT22;20215;53.130;6.408;2022-09-23T02:17:16;19.70;66.60
33931;DHT22;20215;53.130;6.408;2022-09-23T02:19:58;19.70;66.60
33931;DHT22;20215;53.130;6.408;2022-09-23T02:22:53;19.70;66.70
33931;DHT22;20215;53.130;6.408;2022-09-23T02:25:25;19.70;66.60
33931;DHT22;20215;53.130;6.408;2022-09-23T02:30:50;19.70;66.50
33931;DHT22;20215;53.130;6.408;2022-09-23T02:33:49;19.70;67.20
33931;DHT22;20215;53.130;6.408;2022-09-23T02:36:55;19.60;66.70
33931;DHT22;20215;53.130;6.408;2022-09-23T02:46:05;19.60;66.80
33931;DHT22;20215;53.130;6.408;2022-09-23T02:48:54;19.60;66.80
33931;DHT22;20215;53.130;6.408;2022-09-23T02:51:21;19.60;66.90
33931;DHT22;20215;53.130;6.408;2022-09-23T02:53:56;19.50;66.80
33931;DHT22;20215;53.130;6.408;2022-09-23T02:56:32;19.60;66.70
33931;DHT22;20215;53.130;6.408;2022-09-23T02:59:22;19.60;66.40
33931;DHT22;20215;53.130;6.408;2022-09-23T03:05:28;19.60;66.40
33931;DHT22;20215;53.130;6.408;2022-09-23T03:16:38;19.50;66.60
33931;DHT22;20215;53.130;6.408;2022-09-23T03:19:45;19.40;66.90
33931;DHT22;20215;53.130;6.408;2022-09-23T03:22:30;19.50;66.70
33931;DHT22;20215;53.130;6.408;2022-09-23T03:25:08;19.40;66.60
33931;DHT22;20215;53.130;6.408;2022-09-23T03:27:48;19.40;66.70
33931;DHT22;20215;53.130;6.408;2022-09-23T03:30:20;19.40;66.90
33931;DHT22;20215;53.130;6.408;2022-09-23T03:32:46;19.40;66.80
33931;DHT22;20215;53.130;6.408;2022-09-23T03:35:26;19.40;66.70
33931;DHT22;20215;53.130;6.408;2022-09-23T03:38:23;19.40;66.20
33931;DHT22;20215;53.130;6.408;2022-09-23T03:40:49;19.30;66.40
33931;DHT22;20215;53.130;6.408;2022-09-23T03:43:29;19.30;66.40
33931;DHT22;20215;53.130;6.408;2022-09-23T03:48:33;19.30;66.10
33931;DHT22;20215;53.130;6.408;2022-09-23T03:51:20;19.30;66.30
33931;DHT22;20215;53.130;6.408;2022-09-23T03:53:52;19.30;66.10
33931;DHT22;20215;53.130;6.408;2022-09-23T03:56:27;19.30;66.50
33931;DHT22;20215;53.130;6.408;2022-09-23T03:58:52;19.30;67.20
33931;DHT22;20215;53.130;6.408;2022-09-23T04:01:30;19.30;66.70
33931;DHT22;20215;53.130;6.408;2022-09-23T04:04:05;19.30;66.60
33931;DHT22;20215;53.130;6.408;2022-09-23T04:06:45;19.30;66.50
33931;DHT22;20215;53.130;6.408;2022-09-23T04:11:36;19.20;66.80
33931;DHT22;20215;53.130;6.408;2022-09-23T04:14:02;19.20;66.70
33931;DHT22;20215;53.130;6.408;2022-09-23T04:16:28;19.20;66.60
33931;DHT22;20215;53.130;6.408;2022-09-23T04:19:05;19.20;66.50
33931;DHT22;20215;53.130;6.408;2022-09-23T04:21:31;19.20;66.30
33931;DHT22;20215;53.130;6.408;2022-09-23T04:24:10;19.20;66.40
33931;DHT22;20215;53.130;6.408;2022-09-23T04:26:42;19.20;66.30
33931;DHT22;20215;53.130;6.408;2022-09-23T04:29:24;19.10;66.30
33931;DHT22;20215;53.130;6.408;2022-09-23T04:31:50;19.10;66.10
33931;DHT22;20215;53.130;6.408;2022-09-23T04:34:20;19.10;66.30
33931;DHT22;20215;53.130;6.408;2022-09-23T04:36:57;19.10;66.40
33931;DHT22;20215;53.130;6.408;2022-09-23T04:39:22;19.10;66.70
33931;DHT22;20215;53.130;6.408;2022-09-23T04:41:48;19.10;67.60
33931;DHT22;20215;53.130;6.408;2022-09-23T04:44:38;19.10;68.40
33931;DHT22;20215;53.130;6.408;2022-09-23T04:47:29;19.10;68.50
33931;DHT22;20215;53.130;6.408;2022-09-23T04:50:32;19.10;68.50
33931;DHT22;20215;53.130;6.408;2022-09-23T05:04:27;19.00;67.70
33931;DHT22;20215;53.130;6.408;2022-09-23T05:11:56;19.00;67.70
33931;DHT22;20215;53.130;6.408;2022-09-23T05:14:31;19.00;67.60
33931;DHT22;20215;53.130;6.408;2022-09-23T05:17:03;18.90;67.70
33931;DHT22;20215;53.130;6.408;2022-09-23T05:19:29;18.90;67.70
33931;DHT22;20215;53.130;6.408;2022-09-23T05:24:29;18.90;67.70
33931;DHT22;20215;53.130;6.408;2022-09-23T05:32:26;18.90;68.10
33931;DHT22;20215;53.130;6.408;2022-09-23T05:34:52;18.80;68.30
33931;DHT22;20215;53.130;6.408;2022-09-23T05:37:19;18.80;67.40
33931;DHT22;20215;53.130;6.408;2022-09-23T05:39:45;18.70;67.40
33931;DHT22;20215;53.130;6.408;2022-09-23T05:42:10;18.70;68.10
33931;DHT22;20215;53.130;6.408;2022-09-23T05:44:36;18.70;68.50
33931;DHT22;20215;53.130;6.408;2022-09-23T05:47:03;18.60;68.40
33931;DHT22;20215;53.130;6.408;2022-09-23T05:49:29;18.60;68.40
33931;DHT22;20215;53.130;6.408;2022-09-23T05:51:55;18.60;68.50
33931;DHT22;20215;53.130;6.408;2022-09-23T05:54:21;18.60;68.50
33931;DHT22;20215;53.130;6.408;2022-09-23T05:56:47;18.60;68.40
33931;DHT22;20215;53.130;6.408;2022-09-23T05:59:12;18.60;68.70
33931;DHT22;20215;53.130;6.408;2022-09-23T06:01:38;18.60;68.80
33931;DHT22;20215;53.130;6.408;2022-09-23T06:04:06;18.60;68.70
33931;DHT22;20215;53.130;6.408;2022-09-23T06:06:37;18.60;68.60
33931;DHT22;20215;53.130;6.408;2022-09-23T06:09:04;18.60;68.90
33931;DHT22;20215;53.130;6.408;2022-09-23T06:11:32;18.60;68.80
33931;DHT22;20215;53.130;6.408;2022-09-23T06:13:59;18.60;68.80
33931;DHT22;20215;53.130;6.408;2022-09-23T06:16:25;18.60;68.80
33931;DHT22;20215;53.130;6.408;2022-09-23T06:18:51;18.60;68.80
33931;DHT22;20215;53.130;6.408;2022-09-23T06:21:17;18.60;68.60
33931;DHT22;20215;53.130;6.408;2022-09-23T06:23:43;18.60;68.60
33931;DHT22;20215;53.130;6.408;2022-09-23T06:26:12;18.60;68.50
33931;DHT22;20215;53.130;6.408;2022-09-23T06:28:39;18.60;68.60
33931;DHT22;20215;53.130;6.408;2022-09-23T06:31:07;18.60;68.40
33931;DHT22;20215;53.130;6.408;2022-09-23T06:33:34;18.60;68.50
33931;DHT22;20215;53.130;6.408;2022-09-23T06:36:02;18.60;68.50
33931;DHT22;20215;53.130;6.408;2022-09-23T06:38:29;18.60;68.40
33931;DHT22;20215;53.130;6.408;2022-09-23T06:40:56;18.60;68.60
33931;DHT22;20215;53.130;6.408;2022-09-23T06:43:23;18.60;68.90
33931;DHT22;20215;53.130;6.408;2022-09-23T06:45:53;18.60;68.70
33931;DHT22;20215;53.130;6.408;2022-09-23T06:48:20;18.60;68.90
33931;DHT22;20215;53.130;6.408;2022-09-23T06:50:46;18.60;68.60
33931;DHT22;20215;53.130;6.408;2022-09-23T06:53:14;18.60;68.60
33931;DHT22;20215;53.130;6.408;2022-09-23T06:55:40;18.60;68.90
33931;DHT22;20215;53.130;6.408;2022-09-23T06:58:06;18.60;68.70
33931;DHT22;20215;53.130;6.408;2022-09-23T07:00:32;18.60;68.80
33931;DHT22;20215;53.130;6.408;2022-09-23T07:02:58;18.60;68.70
33931;DHT22;20215;53.130;6.408;2022-09-23T07:05:23;18.60;68.80
33931;DHT22;20215;53.130;6.408;2022-09-23T07:07:49;18.60;69.10
33931;DHT22;20215;53.130;6.408;2022-09-23T07:10:14;18.60;68.60
33931;DHT22;20215;53.130;6.408;2022-09-23T07:12:40;18.60;68.80
33931;DHT22;20215;53.130;6.408;2022-09-23T07:15:06;18.60;68.60
33931;DHT22;20215;53.130;6.408;2022-09-23T07:17:32;18.60;69.00
33931;DHT22;20215;53.130;6.408;2022-09-23T07:19:59;18.60;69.10
33931;DHT22;20215;53.130;6.408;2022-09-23T07:22:25;18.60;69.10
33931;DHT22;20215;53.130;6.408;2022-09-23T07:24:51;18.60;68.90
33931;DHT22;20215;53.130;6.408;2022-09-23T07:27:25;18.60;69.10
33931;DHT22;20215;53.130;6.408;2022-09-23T07:29:51;18.60;69.20
33931;DHT22;20215;53.130;6.408;2022-09-23T07:32:18;18.60;69.20
33931;DHT22;20215;53.130;6.408;2022-09-23T07:34:44;18.70;70.00
33931;DHT22;20215;53.130;6.408;2022-09-23T07:37:11;18.70;69.40
33931;DHT22;20215;53.130;6.408;2022-09-23T07:39:37;18.70;69.50
33931;DHT22;20215;53.130;6.408;2022-09-23T07:42:04;18.70;69.50
33931;DHT22;20215;53.130;6.408;2022-09-23T07:44:30;18.70;69.70
33931;DHT22;20215;53.130;6.408;2022-09-23T07:46:56;18.70;69.50
33931;DHT22;20215;53.130;6.408;2022-09-23T07:49:22;18.70;69.50
33931;DHT22;20215;53.130;6.408;2022-09-23T07:51:48;18.70;69.70
33931;DHT22;20215;53.130;6.408;2022-09-23T07:54:15;18.70;69.90
33931;DHT22;20215;53.130;6.408;2022-09-23T07:56:41;18.70;69.60
33931;DHT22;20215;53.130;6.408;2022-09-23T07:59:10;18.70;69.70
33931;DHT22;20215;53.130;6.408;2022-09-23T08:01:38;18.70;69.70
33931;DHT22;20215;53.130;6.408;2022-09-23T08:04:13;18.80;69.80
33931;DHT22;20215;53.130;6.408;2022-09-23T08:06:41;18.80;69.80
33931;DHT22;20215;53.130;6.408;2022-09-23T08:09:07;18.80;69.60
33931;DHT22;20215;53.130;6.408;2022-09-23T08:11:32;18.80;69.90
33931;DHT22;20215;53.130;6.408;2022-09-23T08:13:58;18.80;69.80
33931;DHT22;20215;53.130;6.408;2022-09-23T08:16:24;18.80;70.00
33931;DHT22;20215;53.130;6.408;2022-09-23T08:18:50;18.80;70.00
33931;DHT22;20215;53.130;6.408;2022-09-23T08:21:20;18.90;69.90
33931;DHT22;20215;53.130;6.408;2022-09-23T08:23:46;18.90;70.00
33931;DHT22;20215;53.130;6.408;2022-09-23T08:26:12;18.90;70.10
33931;DHT22;20215;53.130;6.408;2022-09-23T08:28:37;18.90;70.30
33931;DHT22;20215;53.130;6.408;2022-09-23T08:31:03;18.90;70.20
33931;DHT22;20215;53.130;6.408;2022-09-23T08:33:29;18.90;70.20
33931;DHT22;20215;53.130;6.408;2022-09-23T08:35:59;18.90;70.20
33931;DHT22;20215;53.130;6.408;2022-09-23T08:38:25;18.90;70.10
33931;DHT22;20215;53.130;6.408;2022-09-23T08:40:51;18.90;70.20
33931;DHT22;20215;53.130;6.408;2022-09-23T08:43:23;18.90;70.00
33931;DHT22;20215;53.130;6.408;2022-09-23T08:45:49;19.00;70.20
33931;DHT22;20215;53.130;6.408;2022-09-23T08:48:21;19.00;70.70
33931;DHT22;20215;53.130;6.408;2022-09-23T08:50:53;19.00;70.20
33931;DHT22;20215;53.130;6.408;2022-09-23T08:53:26;19.00;70.10
33931;DHT22;20215;53.130;6.408;2022-09-23T08:55:54;19.00;70.10
33931;DHT22;20215;53.130;6.408;2022-09-23T09:01:24;19.00;69.90
33931;DHT22;20215;53.130;6.408;2022-09-23T09:03:55;19.10;69.70
33931;DHT22;20215;53.130;6.408;2022-09-23T09:06:41;19.00;70.20
33931;DHT22;20215;53.130;6.408;2022-09-23T09:09:24;19.10;70.20
33931;DHT22;20215;53.130;6.408;2022-09-23T09:11:56;19.10;70.30
33931;DHT22;20215;53.130;6.408;2022-09-23T09:17:05;19.10;70.40
33931;DHT22;20215;53.130;6.408;2022-09-23T09:21:58;19.20;70.90
33931;DHT22;20215;53.130;6.408;2022-09-23T09:24:33;19.20;71.00
33931;DHT22;20215;53.130;6.408;2022-09-23T09:27:12;19.20;70.60
33931;DHT22;20215;53.130;6.408;2022-09-23T09:29:46;19.20;70.20
33931;DHT22;20215;53.130;6.408;2022-09-23T09:32:41;19.30;71.10
33931;DHT22;20215;53.130;6.408;2022-09-23T09:35:30;19.30;70.40
33931;DHT22;20215;53.130;6.408;2022-09-23T09:37:59;19.20;71.50
33931;DHT22;20215;53.130;6.408;2022-09-23T09:40:26;19.30;71.90
33931;DHT22;20215;53.130;6.408;2022-09-23T09:42:51;19.30;71.20
33931;DHT22;20215;53.130;6.408;2022-09-23T09:48:38;19.30;70.60
33931;DHT22;20215;53.130;6.408;2022-09-23T09:51:18;19.30;72.10
33931;DHT22;20215;53.130;6.408;2022-09-23T09:53:45;19.30;71.60
33931;DHT22;20215;53.130;6.408;2022-09-23T09:56:13;19.30;72.50
33931;DHT22;20215;53.130;6.408;2022-09-23T09:58:53;19.30;72.60
33931;DHT22;20215;53.130;6.408;2022-09-23T10:01:23;19.30;72.40
33931;DHT22;20215;53.130;6.408;2022-09-23T10:03:53;19.30;72.20
33931;DHT22;20215;53.130;6.408;2022-09-23T10:06:24;19.30;72.20
33931;DHT22;20215;53.130;6.408;2022-09-23T10:09:11;19.40;72.30
33931;DHT22;20215;53.130;6.408;2022-09-23T10:11:39;19.40;71.70
33931;DHT22;20215;53.130;6.408;2022-09-23T10:14:17;19.40;72.50
33931;DHT22;20215;53.130;6.408;2022-09-23T10:16:44;19.40;71.90
33931;DHT22;20215;53.130;6.408;2022-09-23T10:19:23;19.40;72.40
33931;DHT22;20215;53.130;6.408;2022-09-23T10:21:54;19.40;72.50
33931;DHT22;20215;53.130;6.408;2022-09-23T10:24:26;19.40;72.40
33931;DHT22;20215;53.130;6.408;2022-09-23T10:31:48;19.40;72.60
33931;DHT22;20215;53.130;6.408;2022-09-23T10:34:27;19.40;72.70
33931;DHT22;20215;53.130;6.408;2022-09-23T10:37:13;19.50;72.60
33931;DHT22;20215;53.130;6.408;2022-09-23T10:39:40;19.50;73.40
33931;DHT22;20215;53.130;6.408;2022-09-23T10:45:38;19.50;73.20
33931;DHT22;20215;53.130;6.408;2022-09-23T10:48:36;19.50;73.10
33931;DHT22;20215;53.130;6.408;2022-09-23T10:51:30;19.50;72.70
33931;DHT22;20215;53.130;6.408;2022-09-23T10:56:53;19.50;75.20
33931;DHT22;20215;53.130;6.408;2022-09-23T11:00:02;19.60;75.70
33931;DHT22;20215;53.130;6.408;2022-09-23T11:09:23;19.60;75.40
33931;DHT22;20215;53.130;6.408;2022-09-23T11:23:52;19.60;75.10
33931;DHT22;20215;53.130;6.408;2022-09-23T11:27:00;19.60;74.50
33931;DHT22;20215;53.130;6.408;2022-09-23T11:37:47;19.70;76.50
33931;DHT22;20215;53.130;6.408;2022-09-23T11:40:31;19.70;76.50
33931;DHT22;20215;53.130;6.408;2022-09-23T11:43:00;19.70;74.80
33931;DHT22;20215;53.130;6.408;2022-09-23T11:45:30;19.70;75.50
33931;DHT22;20215;53.130;6.408;2022-09-23T11:47:59;19.70;76.00
33931;DHT22;20215;53.130;6.408;2022-09-23T11:50:31;19.70;74.90
33931;DHT22;20215;53.130;6.408;2022-09-23T11:53:08;19.70;75.90
33931;DHT22;20215;53.130;6.408;2022-09-23T11:55:45;19.70;75.70
33931;DHT22;20215;53.130;6.408;2022-09-23T11:58:15;19.70;75.80
33931;DHT22;20215;53.130;6.408;2022-09-23T12:01:04;19.70;76.30
33931;DHT22;20215;53.130;6.408;2022-09-23T12:03:43;19.70;75.70
33931;DHT22;20215;53.130;6.408;2022-09-23T12:06:20;19.70;75.40
33931;DHT22;20215;53.130;6.408;2022-09-23T12:08:58;19.70;76.30
33931;DHT22;20215;53.130;6.408;2022-09-23T12:11:43;19.70;75.60
33931;DHT22;20215;53.130;6.408;2022-09-23T12:14:12;19.70;75.30
33931;DHT22;20215;53.130;6.408;2022-09-23T12:28:09;19.80;76.00
33931;DHT22;20215;53.130;6.408;2022-09-23T12:30:37;19.80;76.60
33931;DHT22;20215;53.130;6.408;2022-09-23T12:33:23;19.80;75.50
33931;DHT22;20215;53.130;6.408;2022-09-23T12:36:10;19.80;76.00
33931;DHT22;20215;53.130;6.408;2022-09-23T12:38:50;19.80;76.00
33931;DHT22;20215;53.130;6.408;2022-09-23T12:43:56;19.80;75.90
33931;DHT22;20215;53.130;6.408;2022-09-23T12:46:24;19.80;76.40
33931;DHT22;20215;53.130;6.408;2022-09-23T12:51:33;19.80;75.90
33931;DHT22;20215;53.130;6.408;2022-09-23T13:01:41;19.80;76.20
33931;DHT22;20215;53.130;6.408;2022-09-23T13:04:45;19.80;76.30
33931;DHT22;20215;53.130;6.408;2022-09-23T13:07:33;19.80;76.70
33931;DHT22;20215;53.130;6.408;2022-09-23T13:10:16;19.80;76.10
33931;DHT22;20215;53.130;6.408;2022-09-23T13:12:43;19.80;77.70
33931;DHT22;20215;53.130;6.408;2022-09-23T13:15:36;19.80;77.00
33931;DHT22;20215;53.130;6.408;2022-09-23T13:20:46;19.80;78.70
33931;DHT22;20215;53.130;6.408;2022-09-23T13:23:25;19.80;77.30
33931;DHT22;20215;53.130;6.408;2022-09-23T13:26:08;19.80;78.70
33931;DHT22;20215;53.130;6.408;2022-09-23T13:28:52;19.80;78.80
33931;DHT22;20215;53.130;6.408;2022-09-23T13:31:18;19.80;78.00
33931;DHT22;20215;53.130;6.408;2022-09-23T13:33:50;19.80;78.10
33931;DHT22;20215;53.130;6.408;2022-09-23T13:36:19;19.80;78.10
33931;DHT22;20215;53.130;6.408;2022-09-23T13:38:45;19.80;78.00
33931;DHT22;20215;53.130;6.408;2022-09-23T13:41:21;19.80;77.40
33931;DHT22;20215;53.130;6.408;2022-09-23T13:43:50;19.80;77.00
33931;DHT22;20215;53.130;6.408;2022-09-23T13:46:22;19.80;78.90
33931;DHT22;20215;53.130;6.408;2022-09-23T13:48:53;19.80;80.00
33931;DHT22;20215;53.130;6.408;2022-09-23T13:51:29;19.80;79.10
33931;DHT22;20215;53.130;6.408;2022-09-23T13:53:59;19.80;79.10
33931;DHT22;20215;53.130;6.408;2022-09-23T13:56:30;19.80;80.50
33931;DHT22;20215;53.130;6.408;2022-09-23T13:59:19;19.80;80.10
33931;DHT22;20215;53.130;6.408;2022-09-23T14:01:47;19.80;79.40
33931;DHT22;20215;53.130;6.408;2022-09-23T14:04:25;19.70;79.90
33931;DHT22;20215;53.130;6.408;2022-09-23T14:06:52;19.70;80.10
33931;DHT22;20215;53.130;6.408;2022-09-23T14:09:20;19.80;81.40
33931;DHT22;20215;53.130;6.408;2022-09-23T14:11:49;19.80;81.00
33931;DHT22;20215;53.130;6.408;2022-09-23T14:14:15;19.80;80.80
33931;DHT22;20215;53.130;6.408;2022-09-23T14:16:41;19.80;81.10
33931;DHT22;20215;53.130;6.408;2022-09-23T14:19:15;19.80;82.40
33931;DHT22;20215;53.130;6.408;2022-09-23T14:21:41;19.80;81.10
33931;DHT22;20215;53.130;6.408;2022-09-23T14:26:55;19.70;80.50
33931;DHT22;20215;53.130;6.408;2022-09-23T14:29:30;19.70;81.40
33931;DHT22;20215;53.130;6.408;2022-09-23T14:32:03;19.80;81.20
33931;DHT22;20215;53.130;6.408;2022-09-23T14:40:21;19.80;79.90
33931;DHT22;20215;53.130;6.408;2022-09-23T14:42:56;19.70;80.90
33931;DHT22;20215;53.130;6.408;2022-09-23T14:45:25;19.70;81.00
33931;DHT22;20215;53.130;6.408;2022-09-23T14:47:55;19.80;81.40
33931;DHT22;20215;53.130;6.408;2022-09-23T14:50:25;19.80;81.80
33931;DHT22;20215;53.130;6.408;2022-09-23T14:55:46;19.70;80.80
33931;DHT22;20215;53.130;6.408;2022-09-23T14:58:16;19.70;81.40
33931;DHT22;20215;53.130;6.408;2022-09-23T15:00:59;19.80;81.50
33931;DHT22;20215;53.130;6.408;2022-09-23T15:03:26;19.80;80.70
33931;DHT22;20215;53.130;6.408;2022-09-23T15:06:01;19.80;82.00
33931;DHT22;20215;53.130;6.408;2022-09-23T15:08:28;19.70;81.90
33931;DHT22;20215;53.130;6.408;2022-09-23T15:10:56;19.80;82.20
33931;DHT22;20215;53.130;6.408;2022-09-23T15:13:27;19.80;82.50
33931;DHT22;20215;53.130;6.408;2022-09-23T15:15:54;19.80;81.80
33931;DHT22;20215;53.130;6.408;2022-09-23T15:20:49;19.80;81.70
33931;DHT22;20215;53.130;6.408;2022-09-23T15:26:13;19.80;81.00
33931;DHT22;20215;53.130;6.408;2022-09-23T15:28:40;19.80;82.20
33931;DHT22;20215;53.130;6.408;2022-09-23T15:31:10;19.70;82.60
33931;DHT22;20215;53.130;6.408;2022-09-23T15:33:36;19.70;82.30
33931;DHT22;20215;53.130;6.408;2022-09-23T15:36:01;19.80;82.70
33931;DHT22;20215;53.130;6.408;2022-09-23T15:38:27;19.70;82.60
33931;DHT22;20215;53.130;6.408;2022-09-23T15:40:53;19.70;82.60
33931;DHT22;20215;53.130;6.408;2022-09-23T15:43:21;19.70;82.60
33931;DHT22;20215;53.130;6.408;2022-09-23T15:46:07;19.80;82.60
33931;DHT22;20215;53.130;6.408;2022-09-23T15:48:42;19.80;81.60
33931;DHT22;20215;53.130;6.408;2022-09-23T15:51:11;19.70;81.80
33931;DHT22;20215;53.130;6.408;2022-09-23T15:53:38;19.70;82.60
33931;DHT22;20215;53.130;6.408;2022-09-23T15:56:04;19.70;82.20
33931;DHT22;20215;53.130;6.408;2022-09-23T15:58:30;19.70;82.10
33931;DHT22;20215;53.130;6.408;2022-09-23T16:00:56;19.70;81.80
33931;DHT22;20215;53.130;6.408;2022-09-23T16:03:24;19.70;82.00
33931;DHT22;20215;53.130;6.408;2022-09-23T16:05:53;19.70;82.20
33931;DHT22;20215;53.130;6.408;2022-09-23T16:08:22;19.70;82.40
33931;DHT22;20215;53.130;6.408;2022-09-23T16:10:49;19.70;82.60
33931;DHT22;20215;53.130;6.408;2022-09-23T16:13:15;19.70;82.60
33931;DHT22;20215;53.130;6.408;2022-09-23T16:15:41;19.70;82.80
33931;DHT22;20215;53.130;6.408;2022-09-23T16:18:08;19.70;83.00
33931;DHT22;20215;53.130;6.408;2022-09-23T16:20:44;19.70;83.00
33931;DHT22;20215;53.130;6.408;2022-09-23T16:23:26;19.70;83.10
33931;DHT22;20215;53.130;6.408;2022-09-23T16:26:06;19.70;82.30
33931;DHT22;20215;53.130;6.408;2022-09-23T16:28:35;19.70;82.40
33931;DHT22;20215;53.130;6.408;2022-09-23T16:31:01;19.70;82.40
33931;DHT22;20215;53.130;6.408;2022-09-23T16:33:26;19.70;82.80
33931;DHT22;20215;53.130;6.408;2022-09-23T16:35:52;19.70;83.40
33931;DHT22;20215;53.130;6.408;2022-09-23T16:38:18;19.70;82.60
33931;DHT22;20215;53.130;6.408;2022-09-23T16:40:43;19.70;82.20
33931;DHT22;20215;53.130;6.408;2022-09-23T16:43:09;19.70;82.30
33931;DHT22;20215;53.130;6.408;2022-09-23T16:45:34;19.70;82.30
33931;DHT22;20215;53.130;6.408;2022-09-23T16:48:00;19.70;82.60
33931;DHT22;20215;53.130;6.408;2022-09-23T16:50:26;19.60;82.80
33931;DHT22;20215;53.130;6.408;2022-09-23T16:52:54;19.60;82.70
33931;DHT22;20215;53.130;6.408;2022-09-23T16:55:21;19.60;83.20
33931;DHT22;20215;53.130;6.408;2022-09-23T16:57:49;19.60;83.40
33931;DHT22;20215;53.130;6.408;2022-09-23T17:00:15;19.60;83.40
33931;DHT22;20215;53.130;6.408;2022-09-23T17:03:00;19.60;83.60
33931;DHT22;20215;53.130;6.408;2022-09-23T17:05:45;19.60;83.70
33931;DHT22;20215;53.130;6.408;2022-09-23T17:08:11;19.60;83.70
33931;DHT22;20215;53.130;6.408;2022-09-23T17:10:41;19.60;83.50
33931;DHT22;20215;53.130;6.408;2022-09-23T17:13:07;19.60;83.20
33931;DHT22;20215;53.130;6.408;2022-09-23T17:15:40;19.60;83.00
33931;DHT22;20215;53.130;6.408;2022-09-23T17:18:07;19.60;82.70
33931;DHT22;20215;53.130;6.408;2022-09-23T17:20:33;19.60;82.70
33931;DHT22;20215;53.130;6.408;2022-09-23T17:22:59;19.60;82.60
33931;DHT22;20215;53.130;6.408;2022-09-23T17:25:25;19.60;82.50
33931;DHT22;20215;53.130;6.408;2022-09-23T17:27:51;19.60;82.40
33931;DHT22;20215;53.130;6.408;2022-09-23T17:30:17;19.60;82.50
33931;DHT22;20215;53.130;6.408;2022-09-23T17:32:43;19.60;82.40
33931;DHT22;20215;53.130;6.408;2022-09-23T17:35:09;19.60;82.80
33931;DHT22;20215;53.130;6.408;2022-09-23T17:37:35;19.60;82.80
33931;DHT22;20215;53.130;6.408;2022-09-23T17:40:02;19.60;82.70
33931;DHT22;20215;53.130;6.408;2022-09-23T17:42:28;19.50;83.00
33931;DHT22;20215;53.130;6.408;2022-09-23T17:44:53;19.50;82.90
33931;DHT22;20215;53.130;6.408;2022-09-23T17:47:24;19.50;82.80
33931;DHT22;20215;53.130;6.408;2022-09-23T17:49:49;19.50;82.80
33931;DHT22;20215;53.130;6.408;2022-09-23T17:52:16;19.50;82.80
33931;DHT22;20215;53.130;6.408;2022-09-23T17:54:42;19.50;82.80
33931;DHT22;20215;53.130;6.408;2022-09-23T17:57:07;19.50;82.70
33931;DHT22;20215;53.130;6.408;2022-09-23T17:59:33;19.50;82.70
33931;DHT22;20215;53.130;6.408;2022-09-23T18:01:58;19.50;82.60
33931;DHT22;20215;53.130;6.408;2022-09-23T18:04:24;19.50;82.70
33931;DHT22;20215;53.130;6.408;2022-09-23T18:06:49;19.50;82.70
33931;DHT22;20215;53.130;6.408;2022-09-23T18:09:15;19.50;82.60
33931;DHT22;20215;53.130;6.408;2022-09-23T18:11:44;19.50;82.70
33931;DHT22;20215;53.130;6.408;2022-09-23T18:14:18;19.50;82.90
33931;DHT22;20215;53.130;6.408;2022-09-23T18:16:45;19.50;83.00
33931;DHT22;20215;53.130;6.408;2022-09-23T18:19:14;19.50;83.10
33931;DHT22;20215;53.130;6.408;2022-09-23T18:21:42;19.50;83.20
33931;DHT22;20215;53.130;6.408;2022-09-23T18:24:09;19.50;83.30
33931;DHT22;20215;53.130;6.408;2022-09-23T18:26:35;19.50;83.40
33931;DHT22;20215;53.130;6.408;2022-09-23T18:29:01;19.50;83.20
33931;DHT22;20215;53.130;6.408;2022-09-23T18:31:28;19.50;83.20
33931;DHT22;20215;53.130;6.408;2022-09-23T18:33:56;19.50;83.20
33931;DHT22;20215;53.130;6.408;2022-09-23T18:36:23;19.50;83.10
33931;DHT22;20215;53.130;6.408;2022-09-23T18:38:49;19.50;83.00
33931;DHT22;20215;53.130;6.408;2022-09-23T18:41:16;19.40;83.00
33931;DHT22;20215;53.130;6.408;2022-09-23T18:43:42;19.50;83.00
33931;DHT22;20215;53.130;6.408;2022-09-23T18:46:13;19.50;83.10
33931;DHT22;20215;53.130;6.408;2022-09-23T18:48:39;19.40;83.10
33931;DHT22;20215;53.130;6.408;2022-09-23T18:51:24;19.40;83.10
33931;DHT22;20215;53.130;6.408;2022-09-23T18:53:52;19.40;83.10
33931;DHT22;20215;53.130;6.408;2022-09-23T18:56:27;19.40;83.20
33931;DHT22;20215;53.130;6.408;2022-09-23T18:58:54;19.40;83.50
33931;DHT22;20215;53.130;6.408;2022-09-23T19:01:22;19.40;83.50
33931;DHT22;20215;53.130;6.408;2022-09-23T19:03:52;19.40;83.60